sensor_id;sensor_type;location;lat;lon;timestamp;temperature;humidity
37658;DHT22;23500;53.268;8.308;2024-01-30T00:01:58;16.40;68.60
37658;DHT22;23500;53.268;8.308;2024-01-30T00:04:24;16.40;68.60
37658;DHT22;23500;53.268;8.308;2024-01-30T00:06:51;16.40;68.60
37658;DHT22;23500;53.268;8.308;2024-01-30T00:09:18;16.40;68.50
37658;DHT22;23500;53.268;8.308;2024-01-30T00:11:43;16.40;68.50
37658;DHT22;23500;53.268;8.308;2024-01-30T00:14:09;16.40;68.60
37658;DHT22;23500;53.268;8.308;2024-01-30T00:16:35;16.40;68.50
37658;DHT22;23500;53.268;8.308;2024-01-30T00:19:00;16.40;68.60
37658;DHT22;23500;53.268;8.308;2024-01-30T00:21:27;16.40;68.60
37658;DHT22;23500;53.268;8.308;2024-01-30T00:23:53;16.40;68.60
37658;DHT22;23500;53.268;8.308;2024-01-30T00:26:19;16.40;68.60
37658;DHT22;23500;53.268;8.308;2024-01-30T00:28:44;16.40;68.50
37658;DHT22;23500;53.268;8.308;2024-01-30T00:31:10;16.40;68.60
37658;DHT22;23500;53.268;8.308;2024-01-30T00:33:39;16.40;68.60
37658;DHT22;23500;53.268;8.308;2024-01-30T00:36:09;16.40;68.60
37658;DHT22;23500;53.268;8.308;2024-01-30T00:38:35;16.30;68.50
37658;DHT22;23500;53.268;8.308;2024-01-30T00:41:01;16.40;68.60
37658;DHT22;23500;53.268;8.308;2024-01-30T00:43:27;16.40;68.60
37658;DHT22;23500;53.268;8.308;2024-01-30T00:45:53;16.30;68.50
37658;DHT22;23500;53.268;8.308;2024-01-30T00:48:19;16.30;68.50
37658;DHT22;23500;53.268;8.308;2024-01-30T00:50:45;16.30;68.50
37658;DHT22;23500;53.268;8.308;2024-01-30T00:53:11;16.30;68.50
37658;DHT22;23500;53.268;8.308;2024-01-30T00:55:37;16.30;68.50
37658;DHT22;23500;53.268;8.308;2024-01-30T00:58:03;16.30;69.20
37658;DHT22;23500;53.268;8.308;2024-01-30T01:00:29;16.30;68.50
37658;DHT22;23500;53.268;8.308;2024-01-30T01:02:56;16.30;68.50
37658;DHT22;23500;53.268;8.308;2024-01-30T01:05:22;16.30;68.50
37658;DHT22;23500;53.268;8.308;2024-01-30T01:07:47;16.30;68.50
37658;DHT22;23500;53.268;8.308;2024-01-30T01:10:14;16.30;68.50
37658;DHT22;23500;53.268;8.308;2024-01-30T01:12:41;16.30;68.50
37658;DHT22;23500;53.268;8.308;2024-01-30T01:15:07;16.30;68.50
37658;DHT22;23500;53.268;8.308;2024-01-30T01:17:35;16.30;68.50
37658;DHT22;23500;53.268;8.308;2024-01-30T01:20:02;16.30;68.50
37658;DHT22;23500;53.268;8.308;2024-01-30T01:22:27;16.30;68.50
37658;DHT22;23500;53.268;8.308;2024-01-30T01:24:53;16.30;68.50
37658;DHT22;23500;53.268;8.308;2024-01-30T01:27:19;16.30;68.50
37658;DHT22;23500;53.268;8.308;2024-01-30T01:29:46;16.30;68.50
37658;DHT22;23500;53.268;8.308;2024-01-30T01:32:11;16.30;68.50
37658;DHT22;23500;53.268;8.308;2024-01-30T01:34:37;16.30;68.50
37658;DHT22;23500;53.268;8.308;2024-01-30T01:37:03;16.30;68.50
37658;DHT22;23500;53.268;8.308;2024-01-30T01:39:28;16.30;68.50
37658;DHT22;23500;53.268;8.308;2024-01-30T01:41:54;16.30;68.50
37658;DHT22;23500;53.268;8.308;2024-01-30T01:44:20;16.30;68.50
37658;DHT22;23500;53.268;8.308;2024-01-30T01:46:46;16.30;68.50
37658;DHT22;23500;53.268;8.308;2024-01-30T01:49:13;16.30;68.50
37658;DHT22;23500;53.268;8.308;2024-01-30T01:51:40;16.30;68.60
37658;DHT22;23500;53.268;8.308;2024-01-30T01:54:06;16.30;68.60
37658;DHT22;23500;53.268;8.308;2024-01-30T01:56:33;16.30;68.60
37658;DHT22;23500;53.268;8.308;2024-01-30T01:59:04;16.30;68.60
37658;DHT22;23500;53.268;8.308;2024-01-30T02:01:32;16.30;68.60
37658;DHT22;23500;53.268;8.308;2024-01-30T02:03:59;16.30;68.60
37658;DHT22;23500;53.268;8.308;2024-01-30T02:06:24;16.30;68.60
37658;DHT22;23500;53.268;8.308;2024-01-30T02:08:50;16.30;68.60
37658;DHT22;23500;53.268;8.308;2024-01-30T02:11:16;16.30;68.60
37658;DHT22;23500;53.268;8.308;2024-01-30T02:13:42;16.30;68.60
37658;DHT22;23500;53.268;8.308;2024-01-30T02:16:08;16.30;68.60
37658;DHT22;23500;53.268;8.308;2024-01-30T02:18:34;16.20;68.60
37658;DHT22;23500;53.268;8.308;2024-01-30T02:21:04;16.30;68.60
37658;DHT22;23500;53.268;8.308;2024-01-30T02:23:30;16.30;68.60
37658;DHT22;23500;53.268;8.308;2024-01-30T02:25:58;16.20;68.60
37658;DHT22;23500;53.268;8.308;2024-01-30T02:28:24;16.20;68.60
37658;DHT22;23500;53.268;8.308;2024-01-30T02:30:49;16.30;68.60
37658;DHT22;23500;53.268;8.308;2024-01-30T02:33:15;16.20;68.60
37658;DHT22;23500;53.268;8.308;2024-01-30T02:35:41;16.20;68.60
37658;DHT22;23500;53.268;8.308;2024-01-30T02:38:07;16.20;68.50
37658;DHT22;23500;53.268;8.308;2024-01-30T02:40:32;16.20;68.60
37658;DHT22;23500;53.268;8.308;2024-01-30T02:42:59;16.20;68.60
37658;DHT22;23500;53.268;8.308;2024-01-30T02:45:25;16.20;68.60
37658;DHT22;23500;53.268;8.308;2024-01-30T02:47:51;16.20;68.50
37658;DHT22;23500;53.268;8.308;2024-01-30T02:50:17;16.20;68.60
37658;DHT22;23500;53.268;8.308;2024-01-30T02:52:43;16.20;68.60
37658;DHT22;23500;53.268;8.308;2024-01-30T02:55:12;16.20;68.60
37658;DHT22;23500;53.268;8.308;2024-01-30T02:57:38;16.20;68.60
37658;DHT22;23500;53.268;8.308;2024-01-30T03:00:04;16.20;68.60
37658;DHT22;23500;53.268;8.308;2024-01-30T03:02:32;16.20;68.60
37658;DHT22;23500;53.268;8.308;2024-01-30T03:04:57;16.20;68.60
37658;DHT22;23500;53.268;8.308;2024-01-30T03:07:23;16.20;68.60
37658;DHT22;23500;53.268;8.308;2024-01-30T03:09:49;16.20;68.60
37658;DHT22;23500;53.268;8.308;2024-01-30T03:12:15;16.20;68.60
37658;DHT22;23500;53.268;8.308;2024-01-30T03:14:40;16.20;68.60
37658;DHT22;23500;53.268;8.308;2024-01-30T03:17:06;16.20;68.60
37658;DHT22;23500;53.268;8.308;2024-01-30T03:19:32;16.20;68.60
37658;DHT22;23500;53.268;8.308;2024-01-30T03:21:57;16.20;68.60
37658;DHT22;23500;53.268;8.308;2024-01-30T03:24:23;16.20;68.60
37658;DHT22;23500;53.268;8.308;2024-01-30T03:26:49;16.20;68.60
37658;DHT22;23500;53.268;8.308;2024-01-30T03:29:14;16.20;68.60
37658;DHT22;23500;53.268;8.308;2024-01-30T03:31:41;16.20;68.60
37658;DHT22;23500;53.268;8.308;2024-01-30T03:34:06;16.20;68.60
37658;DHT22;23500;53.268;8.308;2024-01-30T03:36:32;16.20;68.70
37658;DHT22;23500;53.268;8.308;2024-01-30T03:39:00;16.20;68.60
37658;DHT22;23500;53.268;8.308;2024-01-30T03:41:26;16.20;68.70
37658;DHT22;23500;53.268;8.308;2024-01-30T03:43:51;16.10;68.60
37658;DHT22;23500;53.268;8.308;2024-01-30T03:46:17;16.20;68.70
37658;DHT22;23500;53.268;8.308;2024-01-30T03:48:43;16.20;68.70
37658;DHT22;23500;53.268;8.308;2024-01-30T03:51:09;16.10;68.70
37658;DHT22;23500;53.268;8.308;2024-01-30T03:53:40;16.10;68.60
37658;DHT22;23500;53.268;8.308;2024-01-30T03:56:06;16.10;68.70
37658;DHT22;23500;53.268;8.308;2024-01-30T03:58:32;16.10;68.60
37658;DHT22;23500;53.268;8.308;2024-01-30T04:00:58;16.10;68.70
37658;DHT22;23500;53.268;8.308;2024-01-30T04:03:23;16.10;68.70
37658;DHT22;23500;53.268;8.308;2024-01-30T04:05:51;16.10;68.70
37658;DHT22;23500;53.268;8.308;2024-01-30T04:08:16;16.10;68.70
37658;DHT22;23500;53.268;8.308;2024-01-30T04:10:42;16.10;68.70
37658;DHT22;23500;53.268;8.308;2024-01-30T04:13:08;16.10;68.70
37658;DHT22;23500;53.268;8.308;2024-01-30T04:15:34;16.10;68.70
37658;DHT22;23500;53.268;8.308;2024-01-30T04:18:00;16.10;68.60
37658;DHT22;23500;53.268;8.308;2024-01-30T04:20:26;16.10;68.70
37658;DHT22;23500;53.268;8.308;2024-01-30T04:22:52;16.10;68.60
37658;DHT22;23500;53.268;8.308;2024-01-30T04:25:17;16.10;68.70
37658;DHT22;23500;53.268;8.308;2024-01-30T04:27:43;16.10;68.60
37658;DHT22;23500;53.268;8.308;2024-01-30T04:30:09;16.10;68.60
37658;DHT22;23500;53.268;8.308;2024-01-30T04:32:35;16.10;68.70
37658;DHT22;23500;53.268;8.308;2024-01-30T04:35:01;16.10;68.60
37658;DHT22;23500;53.268;8.308;2024-01-30T04:37:27;16.10;68.60
37658;DHT22;23500;53.268;8.308;2024-01-30T04:39:53;16.10;68.70
37658;DHT22;23500;53.268;8.308;2024-01-30T04:42:19;16.10;68.70
37658;DHT22;23500;53.268;8.308;2024-01-30T04:44:45;16.10;68.60
37658;DHT22;23500;53.268;8.308;2024-01-30T04:47:10;16.10;68.60
37658;DHT22;23500;53.268;8.308;2024-01-30T04:49:39;16.10;68.70
37658;DHT22;23500;53.268;8.308;2024-01-30T04:52:08;16.10;68.70
37658;DHT22;23500;53.268;8.308;2024-01-30T04:54:35;16.10;68.70
37658;DHT22;23500;53.268;8.308;2024-01-30T04:57:01;16.10;68.60
37658;DHT22;23500;53.268;8.308;2024-01-30T04:59:27;16.10;68.70
37658;DHT22;23500;53.268;8.308;2024-01-30T05:01:53;16.10;68.70
37658;DHT22;23500;53.268;8.308;2024-01-30T05:04:19;16.10;68.70
37658;DHT22;23500;53.268;8.308;2024-01-30T05:06:44;16.10;68.70
37658;DHT22;23500;53.268;8.308;2024-01-30T05:09:10;16.10;68.70
37658;DHT22;23500;53.268;8.308;2024-01-30T05:11:37;16.10;68.70
37658;DHT22;23500;53.268;8.308;2024-01-30T05:14:04;16.10;68.70
37658;DHT22;23500;53.268;8.308;2024-01-30T05:16:31;16.10;68.80
37658;DHT22;23500;53.268;8.308;2024-01-30T05:18:57;16.10;69.50
37658;DHT22;23500;53.268;8.308;2024-01-30T05:21:23;16.10;68.80
37658;DHT22;23500;53.268;8.308;2024-01-30T05:23:48;16.10;68.80
37658;DHT22;23500;53.268;8.308;2024-01-30T05:26:14;16.10;68.80
37658;DHT22;23500;53.268;8.308;2024-01-30T05:28:40;16.10;69.50
37658;DHT22;23500;53.268;8.308;2024-01-30T05:31:06;16.10;68.80
37658;DHT22;23500;53.268;8.308;2024-01-30T05:33:31;16.10;68.80
37658;DHT22;23500;53.268;8.308;2024-01-30T05:35:57;16.10;68.80
37658;DHT22;23500;53.268;8.308;2024-01-30T05:38:23;16.10;68.90
37658;DHT22;23500;53.268;8.308;2024-01-30T05:40:48;16.10;68.90
37658;DHT22;23500;53.268;8.308;2024-01-30T05:43:14;16.10;68.90
37658;DHT22;23500;53.268;8.308;2024-01-30T05:45:40;16.10;68.90
37658;DHT22;23500;53.268;8.308;2024-01-30T05:48:06;16.10;68.90
37658;DHT22;23500;53.268;8.308;2024-01-30T05:50:32;16.10;68.90
37658;DHT22;23500;53.268;8.308;2024-01-30T05:52:57;16.10;68.90
37658;DHT22;23500;53.268;8.308;2024-01-30T05:55:23;16.10;68.90
37658;DHT22;23500;53.268;8.308;2024-01-30T05:57:49;16.10;69.00
37658;DHT22;23500;53.268;8.308;2024-01-30T06:00:15;16.10;69.00
37658;DHT22;23500;53.268;8.308;2024-01-30T06:02:41;16.10;69.00
37658;DHT22;23500;53.268;8.308;2024-01-30T06:05:07;16.10;69.10
37658;DHT22;23500;53.268;8.308;2024-01-30T06:07:33;16.10;69.30
37658;DHT22;23500;53.268;8.308;2024-01-30T06:09:58;16.10;69.40
37658;DHT22;23500;53.268;8.308;2024-01-30T06:12:27;16.10;69.50
37658;DHT22;23500;53.268;8.308;2024-01-30T06:14:53;16.20;69.70
37658;DHT22;23500;53.268;8.308;2024-01-30T06:17:24;16.20;69.50
37658;DHT22;23500;53.268;8.308;2024-01-30T06:19:50;16.20;69.50
37658;DHT22;23500;53.268;8.308;2024-01-30T06:22:16;16.20;69.50
37658;DHT22;23500;53.268;8.308;2024-01-30T06:24:42;16.20;69.50
37658;DHT22;23500;53.268;8.308;2024-01-30T06:27:10;16.20;69.50
37658;DHT22;23500;53.268;8.308;2024-01-30T06:29:36;16.20;69.50
37658;DHT22;23500;53.268;8.308;2024-01-30T06:32:01;16.30;69.60
37658;DHT22;23500;53.268;8.308;2024-01-30T06:34:27;16.30;69.60
37658;DHT22;23500;53.268;8.308;2024-01-30T06:36:53;16.30;69.60
37658;DHT22;23500;53.268;8.308;2024-01-30T06:39:18;16.30;69.50
37658;DHT22;23500;53.268;8.308;2024-01-30T06:41:44;16.30;69.50
37658;DHT22;23500;53.268;8.308;2024-01-30T06:44:12;16.30;69.50
37658;DHT22;23500;53.268;8.308;2024-01-30T06:46:38;16.30;69.40
37658;DHT22;23500;53.268;8.308;2024-01-30T06:49:04;16.30;69.40
37658;DHT22;23500;53.268;8.308;2024-01-30T06:51:30;16.30;69.30
37658;DHT22;23500;53.268;8.308;2024-01-30T06:53:56;16.30;69.40
37658;DHT22;23500;53.268;8.308;2024-01-30T06:56:21;16.30;69.30
37658;DHT22;23500;53.268;8.308;2024-01-30T06:58:48;16.30;69.30
37658;DHT22;23500;53.268;8.308;2024-01-30T07:01:14;16.30;69.30
37658;DHT22;23500;53.268;8.308;2024-01-30T07:03:40;16.30;69.30
37658;DHT22;23500;53.268;8.308;2024-01-30T07:06:06;16.30;69.20
37658;DHT22;23500;53.268;8.308;2024-01-30T07:08:32;16.40;69.30
37658;DHT22;23500;53.268;8.308;2024-01-30T07:10:57;16.40;69.30
37658;DHT22;23500;53.268;8.308;2024-01-30T07:13:23;16.40;69.40
37658;DHT22;23500;53.268;8.308;2024-01-30T07:15:49;16.40;69.30
37658;DHT22;23500;53.268;8.308;2024-01-30T07:18:15;16.40;69.30
37658;DHT22;23500;53.268;8.308;2024-01-30T07:20:41;16.40;69.20
37658;DHT22;23500;53.268;8.308;2024-01-30T07:23:12;16.40;69.10
37658;DHT22;23500;53.268;8.308;2024-01-30T07:25:40;16.40;69.10
37658;DHT22;23500;53.268;8.308;2024-01-30T07:28:07;16.40;69.00
37658;DHT22;23500;53.268;8.308;2024-01-30T07:30:35;16.40;69.00
37658;DHT22;23500;53.268;8.308;2024-01-30T07:33:00;16.30;69.00
37658;DHT22;23500;53.268;8.308;2024-01-30T07:35:26;16.30;69.00
37658;DHT22;23500;53.268;8.308;2024-01-30T07:37:52;16.30;69.00
37658;DHT22;23500;53.268;8.308;2024-01-30T07:40:17;16.30;69.00
37658;DHT22;23500;53.268;8.308;2024-01-30T07:42:43;16.30;69.10
37658;DHT22;23500;53.268;8.308;2024-01-30T07:45:09;16.30;69.20
37658;DHT22;23500;53.268;8.308;2024-01-30T07:47:35;16.30;69.20
37658;DHT22;23500;53.268;8.308;2024-01-30T07:50:00;16.30;69.20
37658;DHT22;23500;53.268;8.308;2024-01-30T07:52:26;16.30;69.20
37658;DHT22;23500;53.268;8.308;2024-01-30T07:54:52;16.30;69.20
37658;DHT22;23500;53.268;8.308;2024-01-30T07:57:18;16.30;69.20
37658;DHT22;23500;53.268;8.308;2024-01-30T07:59:44;16.30;69.20
37658;DHT22;23500;53.268;8.308;2024-01-30T08:02:12;16.30;69.20
37658;DHT22;23500;53.268;8.308;2024-01-30T08:04:38;16.30;69.30
37658;DHT22;23500;53.268;8.308;2024-01-30T08:07:04;16.30;69.40
37658;DHT22;23500;53.268;8.308;2024-01-30T08:09:30;16.30;69.40
37658;DHT22;23500;53.268;8.308;2024-01-30T08:11:55;16.30;69.60
37658;DHT22;23500;53.268;8.308;2024-01-30T08:14:21;16.30;69.60
37658;DHT22;23500;53.268;8.308;2024-01-30T08:16:47;16.30;69.60
37658;DHT22;23500;53.268;8.308;2024-01-30T08:19:14;16.30;69.60
37658;DHT22;23500;53.268;8.308;2024-01-30T08:21:40;16.30;69.60
37658;DHT22;23500;53.268;8.308;2024-01-30T08:24:07;16.30;69.50
37658;DHT22;23500;53.268;8.308;2024-01-30T08:26:33;16.30;69.40
37658;DHT22;23500;53.268;8.308;2024-01-30T08:28:59;16.30;69.40
37658;DHT22;23500;53.268;8.308;2024-01-30T08:31:25;16.30;69.40
37658;DHT22;23500;53.268;8.308;2024-01-30T08:33:50;16.30;69.40
37658;DHT22;23500;53.268;8.308;2024-01-30T08:36:17;16.40;69.40
37658;DHT22;23500;53.268;8.308;2024-01-30T08:38:43;16.40;69.40
37658;DHT22;23500;53.268;8.308;2024-01-30T08:41:08;16.40;69.30
37658;DHT22;23500;53.268;8.308;2024-01-30T08:43:34;16.40;69.30
37658;DHT22;23500;53.268;8.308;2024-01-30T08:46:00;16.40;69.30
37658;DHT22;23500;53.268;8.308;2024-01-30T08:48:26;16.40;69.30
37658;DHT22;23500;53.268;8.308;2024-01-30T08:50:52;16.40;69.20
37658;DHT22;23500;53.268;8.308;2024-01-30T08:53:18;16.40;69.20
37658;DHT22;23500;53.268;8.308;2024-01-30T08:55:44;16.50;69.20
37658;DHT22;23500;53.268;8.308;2024-01-30T08:58:10;16.50;69.20
37658;DHT22;23500;53.268;8.308;2024-01-30T09:00:36;16.50;69.20
37658;DHT22;23500;53.268;8.308;2024-01-30T09:03:03;16.50;69.10
37658;DHT22;23500;53.268;8.308;2024-01-30T09:05:29;16.50;69.10
37658;DHT22;23500;53.268;8.308;2024-01-30T09:07:54;16.50;69.10
37658;DHT22;23500;53.268;8.308;2024-01-30T09:10:20;16.50;69.00
37658;DHT22;23500;53.268;8.308;2024-01-30T09:12:46;16.50;68.90
37658;DHT22;23500;53.268;8.308;2024-01-30T09:15:12;16.50;68.80
37658;DHT22;23500;53.268;8.308;2024-01-30T09:17:37;16.50;68.90
37658;DHT22;23500;53.268;8.308;2024-01-30T09:20:04;16.50;68.90
37658;DHT22;23500;53.268;8.308;2024-01-30T09:22:30;16.50;68.90
37658;DHT22;23500;53.268;8.308;2024-01-30T09:24:55;16.50;68.90
37658;DHT22;23500;53.268;8.308;2024-01-30T09:27:21;16.60;68.90
37658;DHT22;23500;53.268;8.308;2024-01-30T09:29:47;16.60;68.90
37658;DHT22;23500;53.268;8.308;2024-01-30T09:32:12;16.60;68.80
37658;DHT22;23500;53.268;8.308;2024-01-30T09:34:38;16.60;68.70
37658;DHT22;23500;53.268;8.308;2024-01-30T09:37:05;16.60;68.70
37658;DHT22;23500;53.268;8.308;2024-01-30T09:39:30;16.60;68.70
37658;DHT22;23500;53.268;8.308;2024-01-30T09:44:35;16.50;68.70
37658;DHT22;23500;53.268;8.308;2024-01-30T09:47:03;16.60;68.70
37658;DHT22;23500;53.268;8.308;2024-01-30T09:49:34;16.60;68.70
37658;DHT22;23500;53.268;8.308;2024-01-30T09:52:02;16.50;68.70
37658;DHT22;23500;53.268;8.308;2024-01-30T09:54:30;16.50;68.70
37658;DHT22;23500;53.268;8.308;2024-01-30T09:56:57;16.50;68.70
37658;DHT22;23500;53.268;8.308;2024-01-30T09:59:23;16.50;68.70
37658;DHT22;23500;53.268;8.308;2024-01-30T10:01:50;16.50;68.80
37658;DHT22;23500;53.268;8.308;2024-01-30T10:04:16;16.50;68.80
37658;DHT22;23500;53.268;8.308;2024-01-30T10:06:42;16.50;68.90
37658;DHT22;23500;53.268;8.308;2024-01-30T10:09:08;16.50;68.90
37658;DHT22;23500;53.268;8.308;2024-01-30T10:11:35;16.50;68.90
37658;DHT22;23500;53.268;8.308;2024-01-30T10:14:01;16.50;68.90
37658;DHT22;23500;53.268;8.308;2024-01-30T10:16:27;16.50;68.90
37658;DHT22;23500;53.268;8.308;2024-01-30T10:18:53;16.50;68.90
37658;DHT22;23500;53.268;8.308;2024-01-30T10:21:19;16.50;68.80
37658;DHT22;23500;53.268;8.308;2024-01-30T10:23:44;16.50;68.90
37658;DHT22;23500;53.268;8.308;2024-01-30T10:26:10;16.50;68.90
37658;DHT22;23500;53.268;8.308;2024-01-30T10:28:36;16.60;68.80
37658;DHT22;23500;53.268;8.308;2024-01-30T10:31:02;16.60;68.80
37658;DHT22;23500;53.268;8.308;2024-01-30T10:33:31;16.50;68.60
37658;DHT22;23500;53.268;8.308;2024-01-30T10:36:04;16.50;68.60
37658;DHT22;23500;53.268;8.308;2024-01-30T10:38:31;16.50;68.60
37658;DHT22;23500;53.268;8.308;2024-01-30T10:40:58;16.50;68.60
37658;DHT22;23500;53.268;8.308;2024-01-30T10:43:30;16.50;68.50
37658;DHT22;23500;53.268;8.308;2024-01-30T10:45:57;16.50;68.50
37658;DHT22;23500;53.268;8.308;2024-01-30T10:48:30;16.50;68.50
37658;DHT22;23500;53.268;8.308;2024-01-30T10:50:59;16.50;68.50
37658;DHT22;23500;53.268;8.308;2024-01-30T10:53:26;16.50;68.50
37658;DHT22;23500;53.268;8.308;2024-01-30T11:28:00;16.50;69.50
37658;DHT22;23500;53.268;8.308;2024-01-30T11:35:34;16.60;69.20
37658;DHT22;23500;53.268;8.308;2024-01-30T11:38:00;16.70;69.00
37658;DHT22;23500;53.268;8.308;2024-01-30T11:40:30;16.70;68.80
37658;DHT22;23500;53.268;8.308;2024-01-30T11:42:58;16.80;68.60
37658;DHT22;23500;53.268;8.308;2024-01-30T11:45:24;16.80;68.40
37658;DHT22;23500;53.268;8.308;2024-01-30T11:47:50;16.90;68.20
37658;DHT22;23500;53.268;8.308;2024-01-30T11:50:16;16.90;68.00
37658;DHT22;23500;53.268;8.308;2024-01-30T11:52:42;16.90;68.00
37658;DHT22;23500;53.268;8.308;2024-01-30T11:55:09;16.90;67.90
37658;DHT22;23500;53.268;8.308;2024-01-30T11:57:35;17.00;67.90
37658;DHT22;23500;53.268;8.308;2024-01-30T12:00:03;17.00;67.90
37658;DHT22;23500;53.268;8.308;2024-01-30T12:02:42;17.00;67.90
37658;DHT22;23500;53.268;8.308;2024-01-30T12:05:08;17.00;67.90
37658;DHT22;23500;53.268;8.308;2024-01-30T12:07:35;17.00;67.90
37658;DHT22;23500;53.268;8.308;2024-01-30T12:10:01;17.10;68.00
37658;DHT22;23500;53.268;8.308;2024-01-30T12:12:28;17.10;67.90
37658;DHT22;23500;53.268;8.308;2024-01-30T12:14:55;17.10;67.80
37658;DHT22;23500;53.268;8.308;2024-01-30T12:17:34;17.10;67.80
37658;DHT22;23500;53.268;8.308;2024-01-30T12:20:10;17.10;67.80
37658;DHT22;23500;53.268;8.308;2024-01-30T12:22:44;17.10;67.80
37658;DHT22;23500;53.268;8.308;2024-01-30T12:25:11;17.20;67.90
37658;DHT22;23500;53.268;8.308;2024-01-30T12:27:39;17.20;68.00
37658;DHT22;23500;53.268;8.308;2024-01-30T12:30:09;17.20;68.10
37658;DHT22;23500;53.268;8.308;2024-01-30T12:32:43;17.20;68.20
37658;DHT22;23500;53.268;8.308;2024-01-30T12:35:14;17.20;68.30
37658;DHT22;23500;53.268;8.308;2024-01-30T12:37:41;17.20;68.20
37658;DHT22;23500;53.268;8.308;2024-01-30T12:40:08;17.20;68.20
37658;DHT22;23500;53.268;8.308;2024-01-30T12:42:35;17.20;68.10
37658;DHT22;23500;53.268;8.308;2024-01-30T12:45:02;17.20;68.10
37658;DHT22;23500;53.268;8.308;2024-01-30T12:47:28;17.20;68.10
37658;DHT22;23500;53.268;8.308;2024-01-30T12:49:54;17.20;68.10
37658;DHT22;23500;53.268;8.308;2024-01-30T12:52:21;17.20;68.10
37658;DHT22;23500;53.268;8.308;2024-01-30T12:54:47;17.20;68.10
37658;DHT22;23500;53.268;8.308;2024-01-30T12:57:13;17.20;68.10
37658;DHT22;23500;53.268;8.308;2024-01-30T12:59:38;17.30;68.10
37658;DHT22;23500;53.268;8.308;2024-01-30T13:02:05;17.30;68.70
37658;DHT22;23500;53.268;8.308;2024-01-30T13:04:31;17.30;68.00
37658;DHT22;23500;53.268;8.308;2024-01-30T13:06:57;17.20;67.90
37658;DHT22;23500;53.268;8.308;2024-01-30T13:09:23;17.30;67.90
37658;DHT22;23500;53.268;8.308;2024-01-30T13:11:50;17.30;67.80
37658;DHT22;23500;53.268;8.308;2024-01-30T13:14:17;17.20;67.80
37658;DHT22;23500;53.268;8.308;2024-01-30T13:16:43;17.20;67.90
37658;DHT22;23500;53.268;8.308;2024-01-30T13:19:08;17.20;68.00
37658;DHT22;23500;53.268;8.308;2024-01-30T13:21:34;17.10;68.00
37658;DHT22;23500;53.268;8.308;2024-01-30T13:24:00;17.10;68.10
37658;DHT22;23500;53.268;8.308;2024-01-30T13:26:26;17.00;68.10
37658;DHT22;23500;53.268;8.308;2024-01-30T13:28:51;17.00;68.20
37658;DHT22;23500;53.268;8.308;2024-01-30T13:31:17;16.90;68.20
37658;DHT22;23500;53.268;8.308;2024-01-30T13:33:44;16.90;68.20
37658;DHT22;23500;53.268;8.308;2024-01-30T13:36:10;16.90;68.90
37658;DHT22;23500;53.268;8.308;2024-01-30T13:38:36;16.80;68.20
37658;DHT22;23500;53.268;8.308;2024-01-30T13:41:02;16.90;68.30
37658;DHT22;23500;53.268;8.308;2024-01-30T13:43:28;16.80;68.30
37658;DHT22;23500;53.268;8.308;2024-01-30T13:45:54;16.80;68.30
37658;DHT22;23500;53.268;8.308;2024-01-30T13:48:20;16.80;68.40
37658;DHT22;23500;53.268;8.308;2024-01-30T13:50:45;16.80;68.40
37658;DHT22;23500;53.268;8.308;2024-01-30T13:53:11;16.70;69.00
37658;DHT22;23500;53.268;8.308;2024-01-30T13:55:37;16.80;69.10
37658;DHT22;23500;53.268;8.308;2024-01-30T13:58:05;16.70;68.20
37658;DHT22;23500;53.268;8.308;2024-01-30T14:00:31;16.70;68.20
37658;DHT22;23500;53.268;8.308;2024-01-30T14:02:56;16.70;68.20
37658;DHT22;23500;53.268;8.308;2024-01-30T14:05:24;16.70;68.20
37658;DHT22;23500;53.268;8.308;2024-01-30T14:07:51;16.70;68.20
37658;DHT22;23500;53.268;8.308;2024-01-30T14:10:17;16.70;68.20
37658;DHT22;23500;53.268;8.308;2024-01-30T14:12:43;16.70;68.10
37658;DHT22;23500;53.268;8.308;2024-01-30T14:15:14;16.70;68.10
37658;DHT22;23500;53.268;8.308;2024-01-30T14:17:46;16.70;68.10
37658;DHT22;23500;53.268;8.308;2024-01-30T14:20:14;16.70;68.20
37658;DHT22;23500;53.268;8.308;2024-01-30T14:22:42;16.70;68.10
37658;DHT22;23500;53.268;8.308;2024-01-30T14:25:08;16.70;68.10
37658;DHT22;23500;53.268;8.308;2024-01-30T14:27:35;16.70;68.10
37658;DHT22;23500;53.268;8.308;2024-01-30T14:30:01;16.70;68.10
37658;DHT22;23500;53.268;8.308;2024-01-30T14:32:26;16.70;68.10
37658;DHT22;23500;53.268;8.308;2024-01-30T14:34:52;16.70;68.00
37658;DHT22;23500;53.268;8.308;2024-01-30T14:37:19;16.70;68.00
37658;DHT22;23500;53.268;8.308;2024-01-30T14:39:44;16.70;68.10
37658;DHT22;23500;53.268;8.308;2024-01-30T14:42:10;16.70;68.10
37658;DHT22;23500;53.268;8.308;2024-01-30T14:44:36;16.60;68.00
37658;DHT22;23500;53.268;8.308;2024-01-30T14:47:02;16.70;68.00
37658;DHT22;23500;53.268;8.308;2024-01-30T14:49:28;16.60;68.00
37658;DHT22;23500;53.268;8.308;2024-01-30T14:51:53;16.60;68.00
37658;DHT22;23500;53.268;8.308;2024-01-30T14:54:19;16.60;68.00
37658;DHT22;23500;53.268;8.308;2024-01-30T14:56:45;16.60;68.10
37658;DHT22;23500;53.268;8.308;2024-01-30T14:59:11;16.60;68.10
37658;DHT22;23500;53.268;8.308;2024-01-30T15:01:37;16.60;68.10
37658;DHT22;23500;53.268;8.308;2024-01-30T15:04:03;16.60;68.10
37658;DHT22;23500;53.268;8.308;2024-01-30T15:06:29;16.50;68.10
37658;DHT22;23500;53.268;8.308;2024-01-30T15:08:54;16.60;68.20
37658;DHT22;23500;53.268;8.308;2024-01-30T15:11:20;16.50;68.10
37658;DHT22;23500;53.268;8.308;2024-01-30T15:13:46;16.50;68.20
37658;DHT22;23500;53.268;8.308;2024-01-30T15:16:12;16.50;68.20
37658;DHT22;23500;53.268;8.308;2024-01-30T15:18:38;16.50;68.20
37658;DHT22;23500;53.268;8.308;2024-01-30T15:21:04;16.50;68.20
37658;DHT22;23500;53.268;8.308;2024-01-30T15:23:29;16.50;68.30
37658;DHT22;23500;53.268;8.308;2024-01-30T15:25:55;16.50;68.30
37658;DHT22;23500;53.268;8.308;2024-01-30T15:28:37;16.50;68.30
37658;DHT22;23500;53.268;8.308;2024-01-30T15:31:03;16.50;68.30
37658;DHT22;23500;53.268;8.308;2024-01-30T15:33:29;16.50;68.30
37658;DHT22;23500;53.268;8.308;2024-01-30T15:35:56;16.40;68.30
37658;DHT22;23500;53.268;8.308;2024-01-30T15:38:22;16.40;68.20
37658;DHT22;23500;53.268;8.308;2024-01-30T15:40:48;16.40;68.40
37658;DHT22;23500;53.268;8.308;2024-01-30T15:43:14;16.40;68.80
37658;DHT22;23500;53.268;8.308;2024-01-30T15:45:39;16.40;68.80
37658;DHT22;23500;53.268;8.308;2024-01-30T15:48:05;16.50;69.00
37658;DHT22;23500;53.268;8.308;2024-01-30T15:50:31;16.50;69.10
37658;DHT22;23500;53.268;8.308;2024-01-30T15:52:57;16.50;69.20
37658;DHT22;23500;53.268;8.308;2024-01-30T15:55:23;16.50;69.20
37658;DHT22;23500;53.268;8.308;2024-01-30T15:57:49;16.50;69.20
37658;DHT22;23500;53.268;8.308;2024-01-30T16:00:15;16.50;69.30
37658;DHT22;23500;53.268;8.308;2024-01-30T16:02:41;16.50;69.30
37658;DHT22;23500;53.268;8.308;2024-01-30T16:05:07;16.50;69.30